sensor_id;sensor_type;location;lat;lon;timestamp;temperature;humidity
13835;DHT22;6988;52.614;13.500;2024-01-11T00:02:48;-6.30;99.90
13835;DHT22;6988;52.614;13.500;2024-01-11T00:07:40;-6.20;99.90
13835;DHT22;6988;52.614;13.500;2024-01-11T00:12:32;-6.20;99.90
13835;DHT22;6988;52.614;13.500;2024-01-11T00:17:23;-6.10;99.90
13835;DHT22;6988;52.614;13.500;2024-01-11T00:22:17;-6.20;99.90
13835;DHT22;6988;52.614;13.500;2024-01-11T00:27:09;-6.20;99.90
13835;DHT22;6988;52.614;13.500;2024-01-11T00:32:01;-6.20;99.90
13835;DHT22;6988;52.614;13.500;2024-01-11T00:36:53;-6.20;99.90
13835;DHT22;6988;52.614;13.500;2024-01-11T00:41:47;-6.20;99.90
13835;DHT22;6988;52.614;13.500;2024-01-11T00:46:39;-6.20;99.90
13835;DHT22;6988;52.614;13.500;2024-01-11T00:51:31;-6.10;99.90
13835;DHT22;6988;52.614;13.500;2024-01-11T00:56:23;-6.10;99.90
13835;DHT22;6988;52.614;13.500;2024-01-11T01:01:16;-6.20;99.90
13835;DHT22;6988;52.614;13.500;2024-01-11T01:06:10;-6.20;99.90
13835;DHT22;6988;52.614;13.500;2024-01-11T01:11:02;-6.20;99.90
13835;DHT22;6988;52.614;13.500;2024-01-11T01:15:54;-6.10;99.90
13835;DHT22;6988;52.614;13.500;2024-01-11T01:20:48;-6.10;99.90
13835;DHT22;6988;52.614;13.500;2024-01-11T01:25:39;-6.10;99.90
13835;DHT22;6988;52.614;13.500;2024-01-11T01:30:31;-6.00;99.90
13835;DHT22;6988;52.614;13.500;2024-01-11T01:35:23;-5.90;99.90
13835;DHT22;6988;52.614;13.500;2024-01-11T01:40:17;-5.80;99.90
13835;DHT22;6988;52.614;13.500;2024-01-11T01:45:09;-5.80;99.90
13835;DHT22;6988;52.614;13.500;2024-01-11T01:50:01;-5.70;99.90
13835;DHT22;6988;52.614;13.500;2024-01-11T01:54:56;-5.70;99.90
13835;DHT22;6988;52.614;13.500;2024-01-11T01:59:52;-5.60;99.90
13835;DHT22;6988;52.614;13.500;2024-01-11T02:04:44;-5.50;99.90
13835;DHT22;6988;52.614;13.500;2024-01-11T02:09:36;-5.50;99.90
13835;DHT22;6988;52.614;13.500;2024-01-11T02:14:29;-5.40;99.90
13835;DHT22;6988;52.614;13.500;2024-01-11T02:19:23;-5.40;99.90
13835;DHT22;6988;52.614;13.500;2024-01-11T02:24:16;-5.30;99.90
13835;DHT22;6988;52.614;13.500;2024-01-11T02:29:09;-5.20;99.90
13835;DHT22;6988;52.614;13.500;2024-01-11T02:34:00;-5.20;99.90
13835;DHT22;6988;52.614;13.500;2024-01-11T02:38:53;-5.10;99.90
13835;DHT22;6988;52.614;13.500;2024-01-11T02:43:48;-5.00;99.90
13835;DHT22;6988;52.614;13.500;2024-01-11T02:48:40;-4.80;99.90
13835;DHT22;6988;52.614;13.500;2024-01-11T02:53:31;-4.90;99.90
13835;DHT22;6988;52.614;13.500;2024-01-11T02:58:24;-4.70;99.90
13835;DHT22;6988;52.614;13.500;2024-01-11T03:03:18;-4.70;99.90
13835;DHT22;6988;52.614;13.500;2024-01-11T03:08:09;-4.60;99.90
13835;DHT22;6988;52.614;13.500;2024-01-11T03:13:01;-4.70;99.90
13835;DHT22;6988;52.614;13.500;2024-01-11T03:17:53;-4.60;99.90
13835;DHT22;6988;52.614;13.500;2024-01-11T03:22:47;-4.50;99.90
13835;DHT22;6988;52.614;13.500;2024-01-11T03:27:38;-4.50;99.90
13835;DHT22;6988;52.614;13.500;2024-01-11T03:32:30;-4.50;99.90
13835;DHT22;6988;52.614;13.500;2024-01-11T03:37:22;-4.50;99.90
13835;DHT22;6988;52.614;13.500;2024-01-11T03:42:15;-4.50;99.90
13835;DHT22;6988;52.614;13.500;2024-01-11T03:47:07;-4.40;99.90
13835;DHT22;6988;52.614;13.500;2024-01-11T03:51:59;-4.50;99.90
13835;DHT22;6988;52.614;13.500;2024-01-11T03:56:51;-4.40;99.90
13835;DHT22;6988;52.614;13.500;2024-01-11T04:01:44;-4.40;99.90
13835;DHT22;6988;52.614;13.500;2024-01-11T04:06:36;-4.40;99.90
13835;DHT22;6988;52.614;13.500;2024-01-11T04:11:28;-4.40;99.90
13835;DHT22;6988;52.614;13.500;2024-01-11T04:16:20;-4.30;99.90
13835;DHT22;6988;52.614;13.500;2024-01-11T04:21:21;-4.30;99.90
13835;DHT22;6988;52.614;13.500;2024-01-11T04:26:14;-4.30;99.90
13835;DHT22;6988;52.614;13.500;2024-01-11T04:31:08;-4.30;99.90
13835;DHT22;6988;52.614;13.500;2024-01-11T04:35:59;-4.30;99.90
13835;DHT22;6988;52.614;13.500;2024-01-11T04:40:52;-4.30;99.90
13835;DHT22;6988;52.614;13.500;2024-01-11T04:45:44;-4.30;99.90
13835;DHT22;6988;52.614;13.500;2024-01-11T04:50:36;-4.20;99.90
13835;DHT22;6988;52.614;13.500;2024-01-11T04:55:28;-4.30;99.90
13835;DHT22;6988;52.614;13.500;2024-01-11T05:00:21;-4.20;99.90
13835;DHT22;6988;52.614;13.500;2024-01-11T05:05:13;-4.20;99.90
13835;DHT22;6988;52.614;13.500;2024-01-11T05:10:05;-4.10;99.90
13835;DHT22;6988;52.614;13.500;2024-01-11T05:14:58;-4.10;99.90
13835;DHT22;6988;52.614;13.500;2024-01-11T05:19:51;-4.10;99.90
13835;DHT22;6988;52.614;13.500;2024-01-11T05:24:43;-4.00;99.90
13835;DHT22;6988;52.614;13.500;2024-01-11T05:29:35;-4.00;99.90
13835;DHT22;6988;52.614;13.500;2024-01-11T05:34:26;-3.90;99.90
13835;DHT22;6988;52.614;13.500;2024-01-11T05:39:19;-3.90;99.90
13835;DHT22;6988;52.614;13.500;2024-01-11T05:44:11;-3.80;99.90
13835;DHT22;6988;52.614;13.500;2024-01-11T05:49:03;-3.80;99.90
13835;DHT22;6988;52.614;13.500;2024-01-11T05:53:55;-3.80;99.90
13835;DHT22;6988;52.614;13.500;2024-01-11T05:58:48;-3.80;99.90
13835;DHT22;6988;52.614;13.500;2024-01-11T06:03:40;-3.60;99.90
13835;DHT22;6988;52.614;13.500;2024-01-11T06:08:32;-3.70;99.90
13835;DHT22;6988;52.614;13.500;2024-01-11T06:13:24;-3.60;99.90
13835;DHT22;6988;52.614;13.500;2024-01-11T06:18:17;-3.60;99.90
13835;DHT22;6988;52.614;13.500;2024-01-11T06:23:09;-3.50;99.90
13835;DHT22;6988;52.614;13.500;2024-01-11T06:28:03;-3.60;99.90
13835;DHT22;6988;52.614;13.500;2024-01-11T06:32:57;-3.50;99.90
13835;DHT22;6988;52.614;13.500;2024-01-11T06:37:50;-3.50;99.90
13835;DHT22;6988;52.614;13.500;2024-01-11T06:42:42;-3.40;99.90
13835;DHT22;6988;52.614;13.500;2024-01-11T06:47:33;-3.50;99.90
13835;DHT22;6988;52.614;13.500;2024-01-11T06:52:26;-3.40;99.90
13835;DHT22;6988;52.614;13.500;2024-01-11T06:57:19;-3.40;99.90
13835;DHT22;6988;52.614;13.500;2024-01-11T07:02:10;-3.30;99.90
13835;DHT22;6988;52.614;13.500;2024-01-11T07:07:03;-3.20;99.90
13835;DHT22;6988;52.614;13.500;2024-01-11T07:11:55;-3.20;99.90
13835;DHT22;6988;52.614;13.500;2024-01-11T07:16:48;-3.10;99.90
13835;DHT22;6988;52.614;13.500;2024-01-11T07:21:40;-3.20;99.90
13835;DHT22;6988;52.614;13.500;2024-01-11T07:26:32;-3.10;99.90
13835;DHT22;6988;52.614;13.500;2024-01-11T07:31:24;-3.00;99.90
13835;DHT22;6988;52.614;13.500;2024-01-11T07:36:17;-2.90;99.90
13835;DHT22;6988;52.614;13.500;2024-01-11T07:41:08;-2.90;99.90
13835;DHT22;6988;52.614;13.500;2024-01-11T07:46:00;-2.80;99.90
13835;DHT22;6988;52.614;13.500;2024-01-11T07:50:53;-2.80;99.90
13835;DHT22;6988;52.614;13.500;2024-01-11T07:55:47;-2.70;99.90
13835;DHT22;6988;52.614;13.500;2024-01-11T08:00:38;-2.60;99.90
13835;DHT22;6988;52.614;13.500;2024-01-11T08:05:30;-2.60;99.90
13835;DHT22;6988;52.614;13.500;2024-01-11T08:10:22;-2.60;99.90
13835;DHT22;6988;52.614;13.500;2024-01-11T08:15:15;-2.50;99.90
13835;DHT22;6988;52.614;13.500;2024-01-11T08:20:09;-2.50;99.90
13835;DHT22;6988;52.614;13.500;2024-01-11T08:25:02;-2.50;99.90
13835;DHT22;6988;52.614;13.500;2024-01-11T08:29:55;-2.40;99.90
13835;DHT22;6988;52.614;13.500;2024-01-11T08:34:48;-2.40;99.90
13835;DHT22;6988;52.614;13.500;2024-01-11T08:39:40;-2.30;99.90
13835;DHT22;6988;52.614;13.500;2024-01-11T08:44:32;-2.30;99.90
13835;DHT22;6988;52.614;13.500;2024-01-11T08:49:24;-2.20;99.90
13835;DHT22;6988;52.614;13.500;2024-01-11T08:54:17;-2.20;99.90
13835;DHT22;6988;52.614;13.500;2024-01-11T08:59:11;-2.10;99.90
13835;DHT22;6988;52.614;13.500;2024-01-11T09:04:05;-2.00;99.90
13835;DHT22;6988;52.614;13.500;2024-01-11T09:08:58;-1.80;99.90
13835;DHT22;6988;52.614;13.500;2024-01-11T09:13:52;-1.50;99.90
13835;DHT22;6988;52.614;13.500;2024-01-11T09:18:45;-1.60;99.90
13835;DHT22;6988;52.614;13.500;2024-01-11T09:23:36;-1.50;99.90
13835;DHT22;6988;52.614;13.500;2024-01-11T09:28:28;-1.50;99.90
13835;DHT22;6988;52.614;13.500;2024-01-11T09:33:21;-1.40;99.90
13835;DHT22;6988;52.614;13.500;2024-01-11T09:38:13;-1.40;99.90
13835;DHT22;6988;52.614;13.500;2024-01-11T09:43:06;-1.40;99.90
13835;DHT22;6988;52.614;13.500;2024-01-11T09:48:00;-1.20;99.90
13835;DHT22;6988;52.614;13.500;2024-01-11T09:52:54;-1.10;99.90
13835;DHT22;6988;52.614;13.500;2024-01-11T09:57:47;-1.00;99.90
13835;DHT22;6988;52.614;13.500;2024-01-11T10:02:39;-0.90;99.90
13835;DHT22;6988;52.614;13.500;2024-01-11T10:07:32;-0.80;99.90
13835;DHT22;6988;52.614;13.500;2024-01-11T10:12:27;-0.70;99.90
13835;DHT22;6988;52.614;13.500;2024-01-11T10:17:19;-0.60;99.90
13835;DHT22;6988;52.614;13.500;2024-01-11T10:22:11;-0.70;99.90
13835;DHT22;6988;52.614;13.500;2024-01-11T10:27:08;-0.70;99.90
13835;DHT22;6988;52.614;13.500;2024-01-11T10:32:03;-0.60;99.90
13835;DHT22;6988;52.614;13.500;2024-01-11T10:36:56;-0.60;99.90
13835;DHT22;6988;52.614;13.500;2024-01-11T10:41:51;-0.50;99.90
13835;DHT22;6988;52.614;13.500;2024-01-11T10:46:55;-0.50;99.90
13835;DHT22;6988;52.614;13.500;2024-01-11T10:51:59;-0.50;99.90
13835;DHT22;6988;52.614;13.500;2024-01-11T10:56:54;-0.40;99.90
13835;DHT22;6988;52.614;13.500;2024-01-11T11:01:47;-0.40;99.90
13835;DHT22;6988;52.614;13.500;2024-01-11T11:06:40;-0.30;99.90
13835;DHT22;6988;52.614;13.500;2024-01-11T11:11:35;-0.40;99.90
13835;DHT22;6988;52.614;13.500;2024-01-11T11:16:28;-0.40;99.90
13835;DHT22;6988;52.614;13.500;2024-01-11T11:21:20;-0.40;99.90
13835;DHT22;6988;52.614;13.500;2024-01-11T11:26:15;-0.50;99.90
13835;DHT22;6988;52.614;13.500;2024-01-11T11:31:10;-0.40;99.90
13835;DHT22;6988;52.614;13.500;2024-01-11T11:36:03;-0.40;99.90
13835;DHT22;6988;52.614;13.500;2024-01-11T11:40:57;-0.40;99.90
13835;DHT22;6988;52.614;13.500;2024-01-11T11:45:50;-0.30;99.90
13835;DHT22;6988;52.614;13.500;2024-01-11T11:50:44;-0.20;99.90
13835;DHT22;6988;52.614;13.500;2024-01-11T11:55:37;-0.30;99.90
13835;DHT22;6988;52.614;13.500;2024-01-11T12:00:30;-0.20;99.90
13835;DHT22;6988;52.614;13.500;2024-01-11T12:05:24;-0.10;99.90
13835;DHT22;6988;52.614;13.500;2024-01-11T12:10:18;-0.10;99.90
13835;DHT22;6988;52.614;13.500;2024-01-11T12:15:10;-0.10;99.90
13835;DHT22;6988;52.614;13.500;2024-01-11T12:20:02;-0.10;99.90
13835;DHT22;6988;52.614;13.500;2024-01-11T12:24:55;-0.10;99.90
13835;DHT22;6988;52.614;13.500;2024-01-11T12:29:49;0.00;99.90
13835;DHT22;6988;52.614;13.500;2024-01-11T12:34:41;0.00;99.90
13835;DHT22;6988;52.614;13.500;2024-01-11T12:39:37;0.00;99.90
13835;DHT22;6988;52.614;13.500;2024-01-11T12:44:29;0.10;99.90
13835;DHT22;6988;52.614;13.500;2024-01-11T12:49:24;0.10;99.90
13835;DHT22;6988;52.614;13.500;2024-01-11T12:54:16;0.10;99.90
13835;DHT22;6988;52.614;13.500;2024-01-11T12:59:10;0.20;99.90
13835;DHT22;6988;52.614;13.500;2024-01-11T13:04:02;0.20;99.90
13835;DHT22;6988;52.614;13.500;2024-01-11T13:08:55;0.30;99.90
13835;DHT22;6988;52.614;13.500;2024-01-11T13:13:47;0.30;99.90
13835;DHT22;6988;52.614;13.500;2024-01-11T13:18:39;0.30;99.90
13835;DHT22;6988;52.614;13.500;2024-01-11T13:23:31;0.40;99.90
13835;DHT22;6988;52.614;13.500;2024-01-11T13:28:25;0.40;99.90
13835;DHT22;6988;52.614;13.500;2024-01-11T13:33:17;0.40;99.90
13835;DHT22;6988;52.614;13.500;2024-01-11T13:38:09;0.40;99.90
13835;DHT22;6988;52.614;13.500;2024-01-11T13:43:02;0.40;99.90
13835;DHT22;6988;52.614;13.500;2024-01-11T13:47:55;0.40;99.90
13835;DHT22;6988;52.614;13.500;2024-01-11T13:52:48;0.30;99.90
13835;DHT22;6988;52.614;13.500;2024-01-11T13:57:40;0.30;99.90
13835;DHT22;6988;52.614;13.500;2024-01-11T14:02:33;0.30;99.90
13835;DHT22;6988;52.614;13.500;2024-01-11T14:07:26;0.30;99.90
13835;DHT22;6988;52.614;13.500;2024-01-11T14:12:18;0.30;99.90
13835;DHT22;6988;52.614;13.500;2024-01-11T14:17:10;0.20;99.90
13835;DHT22;6988;52.614;13.500;2024-01-11T14:22:02;0.20;99.90
13835;DHT22;6988;52.614;13.500;2024-01-11T14:26:55;0.20;99.90
13835;DHT22;6988;52.614;13.500;2024-01-11T14:31:47;0.20;99.90
13835;DHT22;6988;52.614;13.500;2024-01-11T14:36:39;0.30;99.90
13835;DHT22;6988;52.614;13.500;2024-01-11T14:41:31;0.20;99.90
13835;DHT22;6988;52.614;13.500;2024-01-11T14:46:24;0.20;99.90
13835;DHT22;6988;52.614;13.500;2024-01-11T14:51:15;0.20;99.90
13835;DHT22;6988;52.614;13.500;2024-01-11T14:56:07;0.20;99.90
13835;DHT22;6988;52.614;13.500;2024-01-11T15:00:59;0.20;99.90
13835;DHT22;6988;52.614;13.500;2024-01-11T15:05:53;0.10;99.90
13835;DHT22;6988;52.614;13.500;2024-01-11T15:10:45;0.20;99.90
13835;DHT22;6988;52.614;13.500;2024-01-11T15:15:36;0.10;99.90
13835;DHT22;6988;52.614;13.500;2024-01-11T15:20:28;0.10;99.90
13835;DHT22;6988;52.614;13.500;2024-01-11T15:25:21;0.10;99.90
13835;DHT22;6988;52.614;13.500;2024-01-11T15:30:14;0.10;99.90
13835;DHT22;6988;52.614;13.500;2024-01-11T15:35:06;0.10;99.90
13835;DHT22;6988;52.614;13.500;2024-01-11T15:39:58;0.10;99.90
13835;DHT22;6988;52.614;13.500;2024-01-11T15:44:51;0.20;99.90
13835;DHT22;6988;52.614;13.500;2024-01-11T15:49:43;0.20;99.90
13835;DHT22;6988;52.614;13.500;2024-01-11T15:54:35;0.10;99.90
13835;DHT22;6988;52.614;13.500;2024-01-11T15:59:26;0.10;99.90
13835;DHT22;6988;52.614;13.500;2024-01-11T16:04:19;0.10;99.90
13835;DHT22;6988;52.614;13.500;2024-01-11T16:09:11;0.10;99.90
13835;DHT22;6988;52.614;13.500;2024-01-11T16:14:03;0.20;99.90
13835;DHT22;6988;52.614;13.500;2024-01-11T16:18:55;0.10;99.90
13835;DHT22;6988;52.614;13.500;2024-01-11T16:23:48;0.30;99.90
13835;DHT22;6988;52.614;13.500;2024-01-11T16:28:40;0.20;99.90
13835;DHT22;6988;52.614;13.500;2024-01-11T16:33:31;0.30;99.90
13835;DHT22;6988;52.614;13.500;2024-01-11T16:38:23;0.10;99.90
13835;DHT22;6988;52.614;13.500;2024-01-11T16:43:16;0.20;99.90
13835;DHT22;6988;52.614;13.500;2024-01-11T16:48:08;0.30;99.90
13835;DHT22;6988;52.614;13.500;2024-01-11T16:53:00;0.20;99.90
13835;DHT22;6988;52.614;13.500;2024-01-11T16:57:53;0.30;99.90
13835;DHT22;6988;52.614;13.500;2024-01-11T17:02:46;0.40;99.90
13835;DHT22;6988;52.614;13.500;2024-01-11T17:07:38;0.40;99.90
13835;DHT22;6988;52.614;13.500;2024-01-11T17:12:29;0.40;99.90
13835;DHT22;6988;52.614;13.500;2024-01-11T17:17:21;0.40;99.90
13835;DHT22;6988;52.614;13.500;2024-01-11T17:22:15;0.40;99.90
13835;DHT22;6988;52.614;13.500;2024-01-11T17:27:06;0.40;99.90
13835;DHT22;6988;52.614;13.500;2024-01-11T17:31:59;0.40;99.90
13835;DHT22;6988;52.614;13.500;2024-01-11T17:36:51;0.40;99.90
13835;DHT22;6988;52.614;13.500;2024-01-11T17:41:44;0.40;99.90
13835;DHT22;6988;52.614;13.500;2024-01-11T17:46:36;0.30;99.90
13835;DHT22;6988;52.614;13.500;2024-01-11T17:51:27;0.50;99.90
13835;DHT22;6988;52.614;13.500;2024-01-11T17:56:19;0.50;99.90
13835;DHT22;6988;52.614;13.500;2024-01-11T18:01:20;0.50;99.90
13835;DHT22;6988;52.614;13.500;2024-01-11T18:06:12;0.50;99.90
13835;DHT22;6988;52.614;13.500;2024-01-11T18:11:04;0.40;99.90
13835;DHT22;6988;52.614;13.500;2024-01-11T18:15:56;0.30;99.90
13835;DHT22;6988;52.614;13.500;2024-01-11T18:20:49;0.50;99.90
13835;DHT22;6988;52.614;13.500;2024-01-11T18:25:41;0.60;99.90
13835;DHT22;6988;52.614;13.500;2024-01-11T18:30:34;0.60;99.90
13835;DHT22;6988;52.614;13.500;2024-01-11T18:35:26;0.60;99.90
13835;DHT22;6988;52.614;13.500;2024-01-11T18:40:19;0.60;99.90
13835;DHT22;6988;52.614;13.500;2024-01-11T18:45:13;0.60;99.90
13835;DHT22;6988;52.614;13.500;2024-01-11T18:50:06;0.70;99.90
13835;DHT22;6988;52.614;13.500;2024-01-11T18:54:59;0.60;99.90
13835;DHT22;6988;52.614;13.500;2024-01-11T18:59:52;0.70;99.90
13835;DHT22;6988;52.614;13.500;2024-01-11T19:04:45;0.70;99.90
13835;DHT22;6988;52.614;13.500;2024-01-11T19:09:37;0.70;99.90
13835;DHT22;6988;52.614;13.500;2024-01-11T19:14:29;0.70;99.90
13835;DHT22;6988;52.614;13.500;2024-01-11T19:19:22;0.70;99.90
13835;DHT22;6988;52.614;13.500;2024-01-11T19:24:15;0.80;99.90
13835;DHT22;6988;52.614;13.500;2024-01-11T19:29:08;0.70;99.90
13835;DHT22;6988;52.614;13.500;2024-01-11T19:34:00;0.70;99.90
13835;DHT22;6988;52.614;13.500;2024-01-11T19:38:53;0.60;99.90
13835;DHT22;6988;52.614;13.500;2024-01-11T19:43:51;0.70;99.90
13835;DHT22;6988;52.614;13.500;2024-01-11T19:48:42;0.70;99.90
13835;DHT22;6988;52.614;13.500;2024-01-11T19:53:34;0.70;99.90
13835;DHT22;6988;52.614;13.500;2024-01-11T19:58:27;0.70;99.90
13835;DHT22;6988;52.614;13.500;2024-01-11T20:03:19;0.70;99.90
13835;DHT22;6988;52.614;13.500;2024-01-11T20:08:11;0.70;99.90
13835;DHT22;6988;52.614;13.500;2024-01-11T20:13:03;0.90;99.90
13835;DHT22;6988;52.614;13.500;2024-01-11T20:17:57;0.90;99.90
13835;DHT22;6988;52.614;13.500;2024-01-11T20:22:48;0.80;99.90
13835;DHT22;6988;52.614;13.500;2024-01-11T20:27:40;0.50;99.90
13835;DHT22;6988;52.614;13.500;2024-01-11T20:32:32;0.70;99.90
13835;DHT22;6988;52.614;13.500;2024-01-11T20:37:25;0.80;99.90
13835;DHT22;6988;52.614;13.500;2024-01-11T20:42:17;0.90;99.90
13835;DHT22;6988;52.614;13.500;2024-01-11T20:47:08;0.60;99.90
13835;DHT22;6988;52.614;13.500;2024-01-11T20:52:00;0.80;99.90
13835;DHT22;6988;52.614;13.500;2024-01-11T20:56:54;0.80;99.90
13835;DHT22;6988;52.614;13.500;2024-01-11T21:01:47;0.80;99.90
13835;DHT22;6988;52.614;13.500;2024-01-11T21:06:38;0.80;99.90
13835;DHT22;6988;52.614;13.500;2024-01-11T21:11:33;0.80;99.90
13835;DHT22;6988;52.614;13.500;2024-01-11T21:16:26;0.80;99.90
13835;DHT22;6988;52.614;13.500;2024-01-11T21:21:19;0.70;99.90
13835;DHT22;6988;52.614;13.500;2024-01-11T21:26:13;0.80;99.90
13835;DHT22;6988;52.614;13.500;2024-01-11T21:31:05;0.80;99.90
13835;DHT22;6988;52.614;13.500;2024-01-11T21:35:58;0.70;99.90
13835;DHT22;6988;52.614;13.500;2024-01-11T21:40:50;0.80;99.90
13835;DHT22;6988;52.614;13.500;2024-01-11T21:45:42;1.00;99.90
13835;DHT22;6988;52.614;13.500;2024-01-11T21:50:34;0.80;99.90
13835;DHT22;6988;52.614;13.500;2024-01-11T21:55:27;1.10;99.90
13835;DHT22;6988;52.614;13.500;2024-01-11T22:00:20;0.80;99.90
13835;DHT22;6988;52.614;13.500;2024-01-11T22:05:12;0.80;99.90
13835;DHT22;6988;52.614;13.500;2024-01-11T22:10:05;0.80;99.90
13835;DHT22;6988;52.614;13.500;2024-01-11T22:15:00;0.80;99.90
13835;DHT22;6988;52.614;13.500;2024-01-11T22:19:51;0.90;99.90
13835;DHT22;6988;52.614;13.500;2024-01-11T22:24:43;0.90;99.90
13835;DHT22;6988;52.614;13.500;2024-01-11T22:29:35;0.90;99.90
13835;DHT22;6988;52.614;13.500;2024-01-11T22:34:28;0.90;99.90
13835;DHT22;6988;52.614;13.500;2024-01-11T22:39:20;0.90;99.90
13835;DHT22;6988;52.614;13.500;2024-01-11T22:44:11;0.90;99.90
13835;DHT22;6988;52.614;13.500;2024-01-11T23:04:20;0.80;99.90
13835;DHT22;6988;52.614;13.500;2024-01-11T23:09:12;0.80;99.90
13835;DHT22;6988;52.614;13.500;2024-01-11T23:14:04;0.80;99.90
13835;DHT22;6988;52.614;13.500;2024-01-11T23:18:56;0.80;99.90
13835;DHT22;6988;52.614;13.500;2024-01-11T23:23:50;0.80;99.90
13835;DHT22;6988;52.614;13.500;2024-01-11T23:28:42;0.80;99.90
13835;DHT22;6988;52.614;13.500;2024-01-11T23:33:34;0.90;99.90
13835;DHT22;6988;52.614;13.500;2024-01-11T23:38:26;1.00;99.90
13835;DHT22;6988;52.614;13.500;2024-01-11T23:43:20;0.90;99.90
13835;DHT22;6988;52.614;13.500;2024-01-11T23:48:11;0.90;99.90
13835;DHT22;6988;52.614;13.500;2024-01-11T23:53:05;0.90;99.90
13835;DHT22;6988;52.614;13.500;2024-01-11T23:57:57;0.90;99.90
